Time;durP1;ratioP1;P1;durP2;ratioP2;P2;SDS_P1;SDS_P2;PMS_P1;PMS_P2;Temp;Humidity;BMP_temperature;BMP_pressure;BME280_temperature;BME280_humidity;BME280_pressure;Samples;Min_cycle;Max_cycle;Signal;HPM_P1;HPM_P2
2022/12/28 00:02:12;;;;;;;15.03;5.23;;;;;;;;;;4965575;28;20027;-70
2022/12/28 00:04:38;;;;;;;12.57;4.63;;;;;;;;;;4956549;28;20050;-70
2022/12/28 00:07:03;;;;;;;11.73;3.40;;;;;;;;;;4940769;28;20034;-70
2022/12/28 00:09:29;;;;;;;15.93;5.17;;;;;;;;;;4956699;28;20061;-70
2022/12/28 00:11:55;;;;;;;17.20;5.70;;;;;;;;;;4955102;28;20038;-71
2022/12/28 00:14:20;;;;;;;16.03;5.30;;;;;;;;;;4956663;28;20567;-69
2022/12/28 00:16:46;;;;;;;8.13;3.40;;;;;;;;;;4940809;28;20041;-70
2022/12/28 00:19:13;;;;;;;16.07;4.80;;;;;;;;;;4956609;28;20046;-72
2022/12/28 00:21:40;;;;;;;19.03;5.40;;;;;;;;;;4952434;28;20496;-72
2022/12/28 00:24:05;;;;;;;18.43;5.40;;;;;;;;;;4955478;28;20039;-72
2022/12/28 00:26:32;;;;;;;11.23;3.87;;;;;;;;;;4957061;28;20457;-71
2022/12/28 00:28:59;;;;;;;13.83;3.83;;;;;;;;;;4972765;28;20081;-73
2022/12/28 00:31:24;;;;;;;15.30;4.97;;;;;;;;;;4955407;28;20121;-73
2022/12/28 00:33:50;;;;;;;13.83;3.90;;;;;;;;;;4955390;28;20062;-74
2022/12/28 00:36:15;;;;;;;17.57;5.00;;;;;;;;;;4955631;28;20105;-71
2022/12/28 00:38:42;;;;;;;13.00;4.47;;;;;;;;;;4954287;28;20613;-70
2022/12/28 00:41:08;;;;;;;18.17;5.37;;;;;;;;;;4970967;28;20144;-70
2022/12/28 00:43:34;;;;;;;16.50;4.33;;;;;;;;;;4953734;28;20141;-70
2022/12/28 00:46:00;;;;;;;11.57;3.77;;;;;;;;;;4969774;28;20035;-70
2022/12/28 00:48:26;;;;;;;20.27;5.40;;;;;;;;;;4955323;28;20035;-70
2022/12/28 00:50:51;;;;;;;20.07;4.77;;;;;;;;;;4955493;28;20062;-69
2022/12/28 00:53:17;;;;;;;14.30;4.60;;;;;;;;;;4972232;28;20050;-71
2022/12/28 00:55:43;;;;;;;15.00;3.83;;;;;;;;;;4956847;28;20046;-70
2022/12/28 00:58:09;;;;;;;14.40;5.03;;;;;;;;;;4961675;28;20089;-70
2022/12/28 01:00:35;;;;;;;24.83;6.87;;;;;;;;;;4981203;28;20480;-71
2022/12/28 01:03:03;;;;;;;14.73;3.80;;;;;;;;;;4965313;28;20046;-73
2022/12/28 01:05:30;;;;;;;19.30;6.53;;;;;;;;;;4979642;28;20513;-70
2022/12/28 01:07:56;;;;;;;9.97;3.20;;;;;;;;;;4964833;28;20054;-72
2022/12/28 01:10:22;;;;;;;17.67;6.37;;;;;;;;;;4948610;28;20046;-70
2022/12/28 01:12:48;;;;;;;10.80;3.60;;;;;;;;;;4947100;28;20044;-71
2022/12/28 01:15:14;;;;;;;12.40;4.27;;;;;;;;;;4979297;28;20121;-70
2022/12/28 01:17:40;;;;;;;17.57;4.63;;;;;;;;;;4965334;28;20069;-70
2022/12/28 01:20:06;;;;;;;12.97;4.27;;;;;;;;;;4962388;28;20538;-70
2022/12/28 01:22:32;;;;;;;13.43;4.17;;;;;;;;;;4963286;28;20141;-70
2022/12/28 01:24:58;;;;;;;12.40;4.20;;;;;;;;;;4982064;28;20137;-69
2022/12/28 01:27:24;;;;;;;14.77;4.63;;;;;;;;;;4988836;28;20046;-68
2022/12/28 01:29:49;;;;;;;15.40;4.70;;;;;;;;;;4988985;28;20030;-69
2022/12/28 01:32:15;;;;;;;19.93;5.43;;;;;;;;;;4988841;28;20551;-68
2022/12/28 01:34:40;;;;;;;30.77;6.87;;;;;;;;;;4972917;28;20136;-68
2022/12/28 01:37:06;;;;;;;19.97;5.67;;;;;;;;;;4974701;28;20465;-69
2022/12/28 01:39:33;;;;;;;16.90;4.00;;;;;;;;;;4975490;28;20045;-69
2022/12/28 01:41:59;;;;;;;26.93;6.20;;;;;;;;;;4975047;28;20038;-69
2022/12/28 01:44:26;;;;;;;21.90;5.03;;;;;;;;;;4958781;28;20077;-68
2022/12/28 01:46:57;;;;;;;22.30;5.00;;;;;;;;;;4975878;28;20503;-69
2022/12/28 01:49:22;;;;;;;;;;;;;;;;;;4995670;28;20069;-69
2022/12/28 01:52:03;;;;;;;21.03;5.80;;;;;;;;;;4978643;28;19913;-69
2022/12/28 01:54:31;;;;;;;17.85;4.82;;;;;;;;;;4962567;28;20034;-70
2022/12/28 01:56:57;;;;;;;22.97;6.97;;;;;;;;;;4978849;28;20353;-71
2022/12/28 01:59:24;;;;;;;21.23;4.97;;;;;;;;;;4961858;28;20046;-70
2022/12/28 02:01:50;;;;;;;27.03;6.53;;;;;;;;;;4978546;28;20129;-70
2022/12/28 02:04:16;;;;;;;27.47;6.93;;;;;;;;;;4994255;28;20173;-71
2022/12/28 02:06:44;;;;;;;21.20;5.57;;;;;;;;;;4977883;28;20112;-70
2022/12/28 02:09:13;;;;;;;29.80;7.70;;;;;;;;;;4994784;28;20042;-71
2022/12/28 02:11:39;;;;;;;18.53;6.27;;;;;;;;;;4968046;28;20031;-71
2022/12/28 02:14:06;;;;;;;21.43;5.13;;;;;;;;;;4959324;28;20031;-74
2022/12/28 02:16:32;;;;;;;25.83;5.80;;;;;;;;;;4959916;28;20060;-71
2022/12/28 02:18:57;;;;;;;21.67;6.07;;;;;;;;;;4975070;28;20038;-71
2022/12/28 02:21:41;;;;;;;18.77;5.07;;;;;;;;;;4958736;28;20035;-71
2022/12/28 02:24:46;;;;;;;26.67;6.70;;;;;;;;;;4974691;28;20047;-72
2022/12/28 02:27:11;;;;;;;19.47;4.73;;;;;;;;;;4938368;29;20035;-71
2022/12/28 02:29:43;;;;;;;23.60;6.50;;;;;;;;;;4907093;29;20043;-75
2022/12/28 02:32:27;;;;;;;26.27;5.97;;;;;;;;;;4948535;28;20038;-71
2022/12/28 02:35:01;;;;;;;17.50;4.27;;;;;;;;;;4958693;28;20027;-72
2022/12/28 02:37:31;;;;;;;35.47;7.23;;;;;;;;;;4974521;28;20054;-71
2022/12/28 02:40:26;;;;;;;30.07;8.10;;;;;;;;;;4958311;28;20922;-71
2022/12/28 02:42:53;;;;;;;22.20;4.57;;;;;;;;;;4950018;28;20057;-71
2022/12/28 02:51:18;;;;;;;24.53;6.90;;;;;;;;;;4974548;28;20169;-71
2022/12/28 02:53:46;;;;;;;41.43;9.33;;;;;;;;;;4941433;28;20046;-71
2022/12/28 02:56:12;;;;;;;22.87;5.97;;;;;;;;;;4958532;28;20053;-70
2022/12/28 02:58:38;;;;;;;18.83;5.17;;;;;;;;;;4957430;28;20034;-71
2022/12/28 03:01:22;;;;;;;34.63;8.13;;;;;;;;;;4974290;28;20497;-71
2022/12/28 03:04:06;;;;;;;27.00;8.00;;;;;;;;;;4942052;28;20158;-73
2022/12/28 03:09:42;;;;;;;33.77;7.63;;;;;;;;;;4957972;28;20038;-73
2022/12/28 03:12:18;;;;;;;26.00;5.70;;;;;;;;;;4958076;28;20155;-71
2022/12/28 03:14:52;;;;;;;22.83;5.93;;;;;;;;;;4942242;28;20130;-71
2022/12/28 03:31:16;;;;;;;25.63;5.77;;;;;;;;;;4957585;28;20037;-71
2022/12/28 03:33:50;;;;;;;32.80;6.87;;;;;;;;;;4973933;28;20050;-71
2022/12/28 03:36:19;;;;;;;22.17;4.77;;;;;;;;;;4957424;28;20046;-70
2022/12/28 03:38:49;;;;;;;26.25;5.50;;;;;;;;;;4957815;28;20042;-71
2022/12/28 03:41:19;;;;;;;18.83;4.20;;;;;;;;;;4941606;28;20043;-71
2022/12/28 03:43:50;;;;;;;25.17;6.30;;;;;;;;;;4957356;28;20062;-71
2022/12/28 03:46:23;;;;;;;32.87;6.87;;;;;;;;;;4941526;28;20511;-71
2022/12/28 03:48:49;;;;;;;32.23;8.40;;;;;;;;;;4957394;28;20031;-71
2022/12/28 03:51:19;;;;;;;31.77;7.43;;;;;;;;;;4957153;28;20157;-72
2022/12/28 03:53:46;;;;;;;28.63;7.60;;;;;;;;;;4973558;28;20053;-72
2022/12/28 03:56:17;;;;;;;54.33;10.57;;;;;;;;;;4971951;28;20053;-74
2022/12/28 03:58:44;;;;;;;47.70;10.37;;;;;;;;;;4940426;28;20473;-71
2022/12/28 04:01:10;;;;;;;22.20;6.13;;;;;;;;;;4956348;28;20034;-72
2022/12/28 04:03:38;;;;;;;30.83;6.20;;;;;;;;;;4955871;28;20076;-73
2022/12/28 04:06:04;;;;;;;30.87;7.90;;;;;;;;;;4939733;28;20532;-72
2022/12/28 04:08:30;;;;;;;24.10;5.77;;;;;;;;;;4955935;28;20070;-72
2022/12/28 04:10:57;;;;;;;38.20;9.20;;;;;;;;;;4955300;28;20039;-73
2022/12/28 04:13:23;;;;;;;40.97;11.17;;;;;;;;;;4955440;28;20473;-72
2022/12/28 04:16:01;;;;;;;28.63;7.13;;;;;;;;;;4955072;28;20046;-71
2022/12/28 04:18:29;;;;;;;23.03;5.83;;;;;;;;;;4972787;28;20043;-71
2022/12/28 04:20:55;;;;;;;29.33;5.87;;;;;;;;;;4972479;28;20401;-71
2022/12/28 04:23:20;;;;;;;34.10;8.37;;;;;;;;;;4972574;28;20054;-71
2022/12/28 04:26:01;;;;;;;40.10;9.50;;;;;;;;;;4956864;28;20042;-71
2022/12/28 04:28:28;;;;;;;37.00;8.97;;;;;;;;;;4956841;28;20047;-73
2022/12/28 04:31:13;;;;;;;22.83;6.27;;;;;;;;;;4959137;28;20137;-70
2022/12/28 04:33:43;;;;;;;41.13;10.85;;;;;;;;;;4956709;28;20627;-72
2022/12/28 04:36:14;;;;;;;24.60;6.20;;;;;;;;;;4956557;28;20050;-73
2022/12/28 04:38:42;;;;;;;26.25;8.30;;;;;;;;;;4956650;28;20464;-73
2022/12/28 04:41:08;;;;;;;32.47;8.63;;;;;;;;;;4972442;28;20078;-73
2022/12/28 04:43:34;;;;;;;37.17;9.13;;;;;;;;;;4940029;28;20216;-73
2022/12/28 04:46:04;;;;;;;40.07;9.90;;;;;;;;;;4956124;28;20109;-73
2022/12/28 04:48:30;;;;;;;28.83;6.97;;;;;;;;;;4939740;28;20039;-72
2022/12/28 04:50:56;;;;;;;32.70;7.97;;;;;;;;;;4955939;28;20046;-72
2022/12/28 04:53:23;;;;;;;35.07;9.30;;;;;;;;;;4952975;28;20035;-73
2022/12/28 04:55:48;;;;;;;40.77;10.80;;;;;;;;;;4952281;28;20495;-78
2022/12/28 04:58:14;;;;;;;47.67;9.90;;;;;;;;;;4954908;28;20137;-70
2022/12/28 05:00:40;;;;;;;28.63;7.77;;;;;;;;;;4970623;28;20042;-70
2022/12/28 05:03:05;;;;;;;43.10;11.00;;;;;;;;;;4954572;28;20085;-70
2022/12/28 05:05:31;;;;;;;38.77;10.27;;;;;;;;;;4938687;28;20041;-70
2022/12/28 05:08:00;;;;;;;35.87;10.33;;;;;;;;;;4954642;28;20042;-71
2022/12/28 05:10:28;;;;;;;26.73;6.93;;;;;;;;;;4971070;28;20046;-70
2022/12/28 05:12:54;;;;;;;30.10;8.60;;;;;;;;;;4953884;28;20437;-70
2022/12/28 05:15:20;;;;;;;41.37;8.73;;;;;;;;;;4954799;28;20093;-69
2022/12/28 05:17:45;;;;;;;33.50;8.37;;;;;;;;;;4970753;28;20047;-68
2022/12/28 05:20:11;;;;;;;33.13;7.80;;;;;;;;;;4955117;28;20093;-68
2022/12/28 05:22:36;;;;;;;45.20;10.67;;;;;;;;;;4954251;28;20338;-69
2022/12/28 05:25:02;;;;;;;35.27;9.97;;;;;;;;;;4954465;28;20090;-69
2022/12/28 05:27:28;;;;;;;28.80;7.60;;;;;;;;;;4954802;28;20046;-70
2022/12/28 05:29:54;;;;;;;39.87;10.77;;;;;;;;;;4970509;28;20694;-69
2022/12/28 05:32:20;;;;;;;24.20;7.00;;;;;;;;;;4938535;28;20035;-75
2022/12/28 05:34:45;;;;;;;31.73;8.77;;;;;;;;;;4954565;28;20078;-75
2022/12/28 05:37:11;;;;;;;32.37;8.63;;;;;;;;;;4971149;28;20043;-68
2022/12/28 05:39:37;;;;;;;48.77;11.47;;;;;;;;;;4970317;28;20129;-71
2022/12/28 05:42:03;;;;;;;21.07;5.37;;;;;;;;;;4938348;28;20138;-71
2022/12/28 05:44:28;;;;;;;24.10;7.77;;;;;;;;;;4954371;28;20426;-72
2022/12/28 05:46:54;;;;;;;37.77;9.60;;;;;;;;;;4954249;28;20042;-71
2022/12/28 05:49:20;;;;;;;26.97;9.07;;;;;;;;;;4938214;28;20135;-75
2022/12/28 05:51:47;;;;;;;31.03;9.67;;;;;;;;;;4953270;28;20039;-75
2022/12/28 05:54:13;;;;;;;36.10;9.50;;;;;;;;;;4954271;28;20126;-75
2022/12/28 05:56:38;;;;;;;27.97;7.43;;;;;;;;;;4954293;28;20149;-76
2022/12/28 05:59:04;;;;;;;12.50;5.17;;;;;;;;;;4970270;28;20459;-76
2022/12/28 06:01:32;;;;;;;29.23;7.87;;;;;;;;;;4958457;28;20042;-76
2022/12/28 06:03:59;;;;;;;21.10;6.97;;;;;;;;;;4958134;28;20120;-76
2022/12/28 06:06:26;;;;;;;29.10;8.47;;;;;;;;;;4970772;28;20030;-76
2022/12/28 06:08:52;;;;;;;36.03;8.63;;;;;;;;;;4954368;28;20065;-75
2022/12/28 06:11:19;;;;;;;26.07;8.17;;;;;;;;;;4954025;28;20154;-76
2022/12/28 06:13:45;;;;;;;38.30;9.97;;;;;;;;;;4969603;28;20731;-75
2022/12/28 06:16:15;;;;;;;35.63;8.33;;;;;;;;;;4978600;28;20035;-74
2022/12/28 06:18:41;;;;;;;21.53;7.97;;;;;;;;;;4963596;28;20039;-74
2022/12/28 06:21:08;;;;;;;20.33;6.53;;;;;;;;;;4970370;28;20157;-76
2022/12/28 06:23:34;;;;;;;32.00;8.70;;;;;;;;;;4973538;28;20057;-73
2022/12/28 06:26:01;;;;;;;38.17;11.20;;;;;;;;;;4972809;28;20042;-73
2022/12/28 06:28:27;;;;;;;26.33;8.57;;;;;;;;;;4973646;28;20109;-75
2022/12/28 06:31:00;;;;;;;26.40;9.20;;;;;;;;;;4973643;28;20181;-77
2022/12/28 06:33:25;;;;;;;22.87;8.17;;;;;;;;;;4991635;28;20472;-78
2022/12/28 06:35:51;;;;;;;32.00;9.17;;;;;;;;;;4976494;28;20037;-78
2022/12/28 06:38:17;;;;;;;29.03;9.67;;;;;;;;;;4976731;28;20337;-75
2022/12/28 06:40:42;;;;;;;32.13;10.10;;;;;;;;;;4961721;28;20107;-78
2022/12/28 06:43:08;;;;;;;27.73;8.47;;;;;;;;;;4976908;28;20545;-78
2022/12/28 06:45:33;;;;;;;20.43;7.10;;;;;;;;;;4977105;28;20129;-77
2022/12/28 06:47:59;;;;;;;29.20;7.53;;;;;;;;;;4976743;28;20495;-75
2022/12/28 06:50:24;;;;;;;30.90;9.87;;;;;;;;;;4960493;28;20062;-75
2022/12/28 06:52:50;;;;;;;25.43;8.93;;;;;;;;;;4972993;28;20062;-74
2022/12/28 06:55:16;;;;;;;40.97;9.53;;;;;;;;;;4972818;28;20081;-75
2022/12/28 06:57:41;;;;;;;32.73;9.93;;;;;;;;;;4973504;28;20137;-75
2022/12/28 07:00:07;;;;;;;37.97;10.03;;;;;;;;;;4972730;28;20117;-77
2022/12/28 07:02:33;;;;;;;33.73;10.50;;;;;;;;;;4957079;28;20041;-75
2022/12/28 07:04:58;;;;;;;35.43;11.30;;;;;;;;;;4941248;28;20042;-74
2022/12/28 07:07:24;;;;;;;35.03;10.97;;;;;;;;;;4956614;28;20027;-75
2022/12/28 07:09:49;;;;;;;46.83;12.47;;;;;;;;;;4940522;28;20404;-75
2022/12/28 07:12:15;;;;;;;56.67;14.00;;;;;;;;;;4972586;28;20034;-74
2022/12/28 07:14:41;;;;;;;49.33;13.00;;;;;;;;;;4957358;28;20461;-77
2022/12/28 07:17:06;;;;;;;47.97;13.63;;;;;;;;;;4939896;28;20042;-72
2022/12/28 07:19:32;;;;;;;59.33;15.27;;;;;;;;;;4946510;28;20047;-72
2022/12/28 07:21:57;;;;;;;38.03;11.17;;;;;;;;;;4969721;28;20045;-72
2022/12/28 07:24:23;;;;;;;63.73;17.93;;;;;;;;;;4972495;28;20133;-72
2022/12/28 07:26:49;;;;;;;72.00;17.20;;;;;;;;;;4939554;28;20042;-72
2022/12/28 07:29:14;;;;;;;65.03;16.50;;;;;;;;;;4972255;28;20134;-73
2022/12/28 07:31:40;;;;;;;64.13;17.50;;;;;;;;;;4955552;28;20366;-74
2022/12/28 07:34:06;;;;;;;81.53;20.33;;;;;;;;;;4956529;28;20027;-72
2022/12/28 07:36:32;;;;;;;70.77;20.10;;;;;;;;;;4965336;28;20044;-75
2022/12/28 07:38:58;;;;;;;76.80;19.53;;;;;;;;;;4981563;28;20113;-73
2022/12/28 07:41:28;;;;;;;74.43;18.40;;;;;;;;;;4980290;28;20131;-75
2022/12/28 07:43:56;;;;;;;66.40;16.13;;;;;;;;;;4962898;28;20054;-70
2022/12/28 07:46:24;;;;;;;62.70;16.60;;;;;;;;;;4956844;28;20042;-70
2022/12/28 07:48:50;;;;;;;57.13;12.93;;;;;;;;;;4957504;28;20377;-70
2022/12/28 07:51:16;;;;;;;57.87;15.47;;;;;;;;;;4973981;28;20054;-75
2022/12/28 07:53:42;;;;;;;56.17;15.73;;;;;;;;;;4959605;28;20504;-76
2022/12/28 07:56:11;;;;;;;57.53;15.07;;;;;;;;;;4980181;28;20121;-76
2022/12/28 07:58:37;;;;;;;54.73;14.73;;;;;;;;;;4965089;28;20052;-74
2022/12/28 08:01:10;;;;;;;55.50;15.33;;;;;;;;;;4980969;28;20443;-74
2022/12/28 08:03:36;;;;;;;59.60;16.27;;;;;;;;;;4980162;28;20042;-74
2022/12/28 08:06:02;;;;;;;64.00;16.57;;;;;;;;;;4980637;28;20061;-75
2022/12/28 08:08:28;;;;;;;72.43;17.20;;;;;;;;;;4981949;28;20400;-75
2022/12/28 08:10:54;;;;;;;80.60;20.20;;;;;;;;;;4963489;28;20038;-74
2022/12/28 08:13:19;;;;;;;103.00;19.63;;;;;;;;;;4979954;28;20114;-75
2022/12/28 08:15:52;;;;;;;95.87;20.47;;;;;;;;;;4965448;28;20035;-74
2022/12/28 08:18:18;;;;;;;96.97;21.07;;;;;;;;;;4969754;28;20130;-75
2022/12/28 08:20:43;;;;;;;96.50;21.57;;;;;;;;;;4955735;28;20122;-73
2022/12/28 08:23:09;;;;;;;92.43;22.83;;;;;;;;;;4972053;28;20141;-74
2022/12/28 08:25:35;;;;;;;100.07;24.60;;;;;;;;;;4955120;28;20038;-74
2022/12/28 08:28:00;;;;;;;103.50;24.30;;;;;;;;;;4976369;28;20770;-74
2022/12/28 08:30:26;;;;;;;104.33;24.30;;;;;;;;;;4978702;28;20030;-74
2022/12/28 08:32:52;;;;;;;113.83;25.57;;;;;;;;;;4995131;28;20035;-73
2022/12/28 08:35:17;;;;;;;92.50;23.37;;;;;;;;;;4960181;28;20042;-74
2022/12/28 08:37:43;;;;;;;98.10;22.67;;;;;;;;;;4992073;28;20034;-74
2022/12/28 08:40:09;;;;;;;94.37;22.90;;;;;;;;;;4958654;28;20041;-75
2022/12/28 08:42:34;;;;;;;93.27;22.20;;;;;;;;;;4974613;28;20034;-73
2022/12/28 08:45:00;;;;;;;95.23;23.13;;;;;;;;;;4973999;28;20538;-72
2022/12/28 08:47:27;;;;;;;100.50;22.40;;;;;;;;;;4990069;28;20125;-73
2022/12/28 08:49:53;;;;;;;93.40;22.73;;;;;;;;;;4957153;28;20050;-73
2022/12/28 08:52:18;;;;;;;98.93;22.27;;;;;;;;;;4978976;28;20038;-71
2022/12/28 08:54:44;;;;;;;85.00;21.97;;;;;;;;;;4959986;28;20125;-74
2022/12/28 08:57:10;;;;;;;92.73;21.33;;;;;;;;;;4944660;28;20048;-72
2022/12/28 08:59:35;;;;;;;84.07;20.13;;;;;;;;;;4948877;28;20544;-74
2022/12/28 09:02:01;;;;;;;86.13;21.60;;;;;;;;;;4981292;28;20174;-73
2022/12/28 09:04:26;;;;;;;85.13;20.77;;;;;;;;;;4974461;28;20085;-73
2022/12/28 09:06:52;;;;;;;83.97;21.77;;;;;;;;;;4970230;28;20053;-73
2022/12/28 09:09:18;;;;;;;88.77;21.37;;;;;;;;;;4956377;28;20035;-70
2022/12/28 09:11:44;;;;;;;91.77;22.50;;;;;;;;;;4971629;28;20041;-70
2022/12/28 09:14:11;;;;;;;88.87;22.80;;;;;;;;;;4972024;28;20037;-70
2022/12/28 09:16:37;;;;;;;100.00;23.50;;;;;;;;;;4972007;28;20037;-70
2022/12/28 09:19:04;;;;;;;89.83;22.97;;;;;;;;;;4988832;28;20519;-71
2022/12/28 09:21:32;;;;;;;95.90;23.23;;;;;;;;;;4972050;28;20050;-69
2022/12/28 09:23:57;;;;;;;86.10;24.03;;;;;;;;;;4957493;28;20042;-68
2022/12/28 09:26:24;;;;;;;89.10;24.57;;;;;;;;;;4974393;28;20061;-67
2022/12/28 09:28:54;;;;;;;80.43;21.83;;;;;;;;;;4990457;28;20038;-68
2022/12/28 09:31:20;;;;;;;84.13;22.47;;;;;;;;;;4990605;28;20042;-69
2022/12/28 09:33:59;;;;;;;81.30;22.37;;;;;;;;;;4974168;28;20031;-68
2022/12/28 09:36:26;;;;;;;80.87;22.13;;;;;;;;;;4974457;28;20049;-69
2022/12/28 09:38:52;;;;;;;74.87;22.17;;;;;;;;;;4957693;28;20026;-69
2022/12/28 09:41:23;;;;;;;76.80;23.30;;;;;;;;;;4974174;28;20044;-74
2022/12/28 09:43:55;;;;;;;80.53;22.97;;;;;;;;;;4991001;28;20053;-70
2022/12/28 09:46:22;;;;;;;81.40;23.23;;;;;;;;;;4990291;28;20049;-69
2022/12/28 09:48:52;;;;;;;85.17;22.67;;;;;;;;;;4973590;28;20455;-74
2022/12/28 09:51:19;;;;;;;86.07;23.55;;;;;;;;;;4984338;28;20059;-74
2022/12/28 09:53:45;;;;;;;93.27;24.60;;;;;;;;;;4954092;28;20057;-69
2022/12/28 09:56:27;;;;;;;95.33;26.87;;;;;;;;;;4954933;28;20477;-68
2022/12/28 09:58:53;;;;;;;101.13;27.63;;;;;;;;;;4970966;28;20053;-71
2022/12/28 10:01:20;;;;;;;98.30;27.13;;;;;;;;;;4970713;28;20039;-69
2022/12/28 10:03:46;;;;;;;93.53;26.13;;;;;;;;;;4971443;28;20150;-69
2022/12/28 10:06:14;;;;;;;93.03;25.13;;;;;;;;;;4954545;28;20043;-67
2022/12/28 10:08:44;;;;;;;115.30;27.17;;;;;;;;;;4973247;28;20093;-69
2022/12/28 10:11:14;;;;;;;95.07;26.10;;;;;;;;;;4973916;28;20031;-69
2022/12/28 10:13:39;;;;;;;98.40;25.37;;;;;;;;;;4973494;28;20440;-71
2022/12/28 10:16:05;;;;;;;93.00;25.07;;;;;;;;;;4973424;28;20051;-67
2022/12/28 10:18:32;;;;;;;89.23;25.03;;;;;;;;;;4957836;28;20031;-67
2022/12/28 10:20:58;;;;;;;106.83;26.43;;;;;;;;;;4974656;28;20034;-67
2022/12/28 10:23:26;;;;;;;99.70;27.10;;;;;;;;;;4942052;28;20070;-68
2022/12/28 10:25:53;;;;;;;114.17;28.53;;;;;;;;;;4941928;28;20060;-69
2022/12/28 10:28:21;;;;;;;109.03;28.67;;;;;;;;;;4974270;28;20038;-71
2022/12/28 10:30:50;;;;;;;104.67;29.03;;;;;;;;;;4974122;28;20058;-68
2022/12/28 10:33:17;;;;;;;113.23;28.13;;;;;;;;;;4974709;28;20122;-68
2022/12/28 10:35:49;;;;;;;117.37;28.33;;;;;;;;;;4973750;28;20445;-68
2022/12/28 10:38:31;;;;;;;108.23;27.77;;;;;;;;;;4973854;28;20027;-67
2022/12/28 10:40:59;;;;;;;105.80;26.73;;;;;;;;;;4974778;28;20500;-67
2022/12/28 10:43:27;;;;;;;104.57;26.67;;;;;;;;;;4973851;28;20043;-68
2022/12/28 10:45:53;;;;;;;111.47;31.60;;;;;;;;;;4973807;28;20050;-69
2022/12/28 10:48:21;;;;;;;117.20;34.03;;;;;;;;;;4974950;28;20385;-76
2022/12/28 10:50:50;;;;;;;106.53;30.03;;;;;;;;;;4957713;28;20089;-69
2022/12/28 10:53:22;;;;;;;106.00;28.63;;;;;;;;;;4973972;28;20393;-67
2022/12/28 10:55:48;;;;;;;114.40;27.97;;;;;;;;;;4957512;28;20101;-68
2022/12/28 10:58:24;;;;;;;93.00;27.17;;;;;;;;;;4957211;28;20047;-70
2022/12/28 11:00:54;;;;;;;110.90;26.53;;;;;;;;;;4973235;28;20057;-72
2022/12/28 11:03:24;;;;;;;81.32;23.85;;;;;;;;;;4973112;28;20089;-70
2022/12/28 11:06:05;;;;;;;84.40;25.05;;;;;;;;;;4957154;28;20097;-69
2022/12/28 11:08:31;;;;;;;92.63;26.88;;;;;;;;;;4973739;28;20392;-69
2022/12/28 11:10:57;;;;;;;91.30;25.33;;;;;;;;;;4973224;28;20134;-70
2022/12/28 11:13:22;;;;;;;99.57;28.33;;;;;;;;;;4956651;28;20034;-68
2022/12/28 11:15:48;;;;;;;90.27;27.07;;;;;;;;;;4941051;28;20101;-70
2022/12/28 11:18:15;;;;;;;100.17;28.40;;;;;;;;;;4973408;28;20043;-70
2022/12/28 11:20:43;;;;;;;106.57;28.17;;;;;;;;;;4956488;28;20058;-71
2022/12/28 11:23:23;;;;;;;114.87;29.10;;;;;;;;;;4958597;28;20105;-71
2022/12/28 11:25:49;;;;;;;122.10;30.50;;;;;;;;;;4958470;28;20392;-72
2022/12/28 11:28:17;;;;;;;115.23;28.50;;;;;;;;;;4958572;28;20035;-73
2022/12/28 11:30:43;;;;;;;135.90;31.13;;;;;;;;;;4975745;28;20035;-71
2022/12/28 11:33:29;;;;;;;125.70;30.13;;;;;;;;;;4974514;28;20136;-72
2022/12/28 11:35:55;;;;;;;129.80;30.97;;;;;;;;;;4969588;28;20073;-70
2022/12/28 11:38:40;;;;;;;127.63;32.30;;;;;;;;;;4941169;28;20087;-72
2022/12/28 11:41:08;;;;;;;130.53;31.17;;;;;;;;;;4956704;28;20034;-71
2022/12/28 11:43:38;;;;;;;125.43;31.13;;;;;;;;;;4956913;28;20054;-72
2022/12/28 11:46:19;;;;;;;120.20;32.10;;;;;;;;;;4974001;28;20035;-73
2022/12/28 11:49:03;;;;;;;121.70;31.90;;;;;;;;;;4957055;28;20038;-72
2022/12/28 11:51:38;;;;;;;124.87;30.77;;;;;;;;;;4952884;29;20146;-71
2022/12/28 11:54:22;;;;;;;121.60;33.67;;;;;;;;;;4958614;28;20037;-71
2022/12/28 11:56:51;;;;;;;138.60;33.60;;;;;;;;;;4993376;28;20386;-71
2022/12/28 11:59:30;;;;;;;104.33;31.07;;;;;;;;;;4992839;28;20497;-72
2022/12/28 12:01:59;;;;;;;153.33;34.50;;;;;;;;;;4992047;28;20038;-71
2022/12/28 12:04:32;;;;;;;131.27;32.43;;;;;;;;;;4992890;28;20058;-70
2022/12/28 12:06:57;;;;;;;128.43;32.47;;;;;;;;;;4992267;28;20495;-69
2022/12/28 12:09:37;;;;;;;121.63;32.80;;;;;;;;;;4992089;28;20135;-69
2022/12/28 12:12:15;;;;;;;112.43;31.43;;;;;;;;;;4975073;28;20053;-69
2022/12/28 12:14:49;;;;;;;134.03;33.87;;;;;;;;;;4975721;28;20387;-70
2022/12/28 12:17:23;;;;;;;107.93;32.57;;;;;;;;;;4975466;28;20144;-69
2022/12/28 12:19:57;;;;;;;116.60;31.33;;;;;;;;;;4959644;28;20042;-69
2022/12/28 12:22:25;;;;;;;129.93;32.60;;;;;;;;;;4975488;28;20038;-70
2022/12/28 12:25:09;;;;;;;95.33;27.03;;;;;;;;;;4993019;28;20086;-72
2022/12/28 12:27:46;;;;;;;104.57;28.37;;;;;;;;;;4992882;28;20163;-70
2022/12/28 12:30:16;;;;;;;96.13;25.93;;;;;;;;;;4991282;28;20285;-69
2022/12/28 12:32:47;;;;;;;114.77;28.27;;;;;;;;;;4992419;28;20838;-68
2022/12/28 12:35:18;;;;;;;105.07;27.33;;;;;;;;;;4992242;28;20046;-68
2022/12/28 12:38:03;;;;;;;118.87;27.30;;;;;;;;;;4990755;28;20100;-70
2022/12/28 12:40:34;;;;;;;157.47;30.33;;;;;;;;;;4989342;28;20332;-70
2022/12/28 12:43:00;;;;;;;159.63;29.23;;;;;;;;;;4956631;28;20077;-70
2022/12/28 12:45:25;;;;;;;136.33;30.03;;;;;;;;;;4973161;28;20042;-70
2022/12/28 12:47:54;;;;;;;130.30;28.30;;;;;;;;;;4973168;28;20037;-70
2022/12/28 12:50:22;;;;;;;117.37;26.27;;;;;;;;;;4991450;28;20067;-70
2022/12/28 12:53:07;;;;;;;163.93;29.57;;;;;;;;;;4973885;28;20472;-69
2022/12/28 12:55:44;;;;;;;102.27;21.57;;;;;;;;;;4991400;28;20050;-72
2022/12/28 12:58:18;;;;;;;95.30;18.87;;;;;;;;;;4974796;28;20034;-70
2022/12/28 13:01:01;;;;;;;149.67;25.73;;;;;;;;;;4990497;28;20120;-73
2022/12/28 13:03:35;;;;;;;142.98;23.33;;;;;;;;;;4991149;28;20053;-73
2022/12/28 13:06:02;;;;;;;149.63;23.73;;;;;;;;;;4990515;28;20111;-72
2022/12/28 13:08:35;;;;;;;134.83;23.60;;;;;;;;;;4990834;28;20049;-73
2022/12/28 13:11:02;;;;;;;158.00;28.63;;;;;;;;;;4964040;28;20038;-70
2022/12/28 13:13:31;;;;;;;148.23;25.97;;;;;;;;;;4990986;28;20380;-72
2022/12/28 13:15:59;;;;;;;136.90;23.83;;;;;;;;;;4991693;28;20118;-72
2022/12/28 13:18:25;;;;;;;128.20;23.50;;;;;;;;;;4974666;28;20100;-72
2022/12/28 13:20:51;;;;;;;132.33;23.60;;;;;;;;;;4991098;28;20566;-71
2022/12/28 13:23:17;;;;;;;167.00;27.30;;;;;;;;;;4974754;28;20061;-72
2022/12/28 13:25:48;;;;;;;138.83;23.10;;;;;;;;;;4990454;28;20862;-71
2022/12/28 13:28:27;;;;;;;151.85;24.40;;;;;;;;;;4976507;28;20137;-72
2022/12/28 13:31:05;;;;;;;117.03;21.77;;;;;;;;;;4993856;28;20099;-72
2022/12/28 13:33:31;;;;;;;115.30;20.77;;;;;;;;;;4993524;28;20030;-72
2022/12/28 13:36:08;;;;;;;121.23;21.23;;;;;;;;;;4992089;28;20141;-71
2022/12/28 13:38:34;;;;;;;120.33;21.43;;;;;;;;;;4990863;28;20189;-72
2022/12/28 13:41:02;;;;;;;128.03;21.47;;;;;;;;;;4990383;28;20128;-72
2022/12/28 13:43:42;;;;;;;120.33;20.57;;;;;;;;;;4976326;28;20053;-72
2022/12/28 13:46:09;;;;;;;106.85;19.38;;;;;;;;;;4994819;28;20097;-72
2022/12/28 13:48:37;;;;;;;118.10;20.47;;;;;;;;;;4978560;28;20034;-71
2022/12/28 13:51:03;;;;;;;113.97;20.10;;;;;;;;;;4974405;28;20062;-72
2022/12/28 13:53:30;;;;;;;113.43;20.63;;;;;;;;;;4959133;28;20480;-72
2022/12/28 13:55:57;;;;;;;95.17;18.73;;;;;;;;;;4974867;28;20046;-72
2022/12/28 13:58:29;;;;;;;98.63;19.40;;;;;;;;;;4975453;28;20034;-72
2022/12/28 14:00:56;;;;;;;103.23;19.23;;;;;;;;;;4958317;28;20039;-73
2022/12/28 14:03:21;;;;;;;105.23;20.10;;;;;;;;;;4959071;28;20050;-69
2022/12/28 14:05:49;;;;;;;100.00;20.10;;;;;;;;;;4958733;28;20054;-70
2022/12/28 14:08:15;;;;;;;106.03;20.27;;;;;;;;;;4942684;28;20096;-70
2022/12/28 14:10:41;;;;;;;112.93;21.83;;;;;;;;;;4942643;28;20469;-69
2022/12/28 14:13:08;;;;;;;108.03;20.13;;;;;;;;;;4958288;28;20117;-70
2022/12/28 14:15:36;;;;;;;84.50;17.97;;;;;;;;;;4973761;28;20102;-70
2022/12/28 14:18:02;;;;;;;92.60;19.03;;;;;;;;;;4958840;28;20587;-70
2022/12/28 14:20:28;;;;;;;108.63;20.67;;;;;;;;;;4975006;28;20061;-70
2022/12/28 14:22:54;;;;;;;105.07;19.73;;;;;;;;;;4975050;28;20357;-70
2022/12/28 14:25:23;;;;;;;88.53;17.10;;;;;;;;;;4958571;28;20050;-70
2022/12/28 14:27:52;;;;;;;88.43;17.73;;;;;;;;;;4957715;28;20131;-69
2022/12/28 14:30:31;;;;;;;88.53;17.27;;;;;;;;;;4974358;28;20485;-69
2022/12/28 14:33:00;;;;;;;109.90;20.93;;;;;;;;;;4974563;28;20468;-70
2022/12/28 14:35:26;;;;;;;96.83;17.30;;;;;;;;;;4958248;28;20090;-74
2022/12/28 14:37:53;;;;;;;91.67;17.63;;;;;;;;;;4974262;28;20050;-71
2022/12/28 14:40:24;;;;;;;101.27;18.70;;;;;;;;;;4974473;28;20035;-70
2022/12/28 14:42:50;;;;;;;110.05;19.27;;;;;;;;;;4958017;28;20035;-70
2022/12/28 14:45:31;;;;;;;87.23;17.63;;;;;;;;;;4974076;28;20042;-70
2022/12/28 14:47:56;;;;;;;93.93;17.45;;;;;;;;;;4974064;28;20445;-74
2022/12/28 14:50:23;;;;;;;96.07;17.63;;;;;;;;;;4958447;28;20072;-70